Latest Weather Observations for Tuggeranong

IDN60801

Issued at 7:03 am EST Sunday 24 July 2016 (issued every 30 minutes, with the page automatically refreshed every 10 minutes)

About weather observations | Map of weather stations | Latest weather observations for NSW | Other Formats
Station Details ID: 070339 Name: TUGGERANONG (ISABELLA PLAINS) AWS Lat: -35.42 Lon: 149.09 Height: 586.7 m
Data from the previous 72 hours. | See also: Recent months at Tuggeranong
Date/Time
EST
Temp
°C
App
Temp
°C
Dew
Point
°C
Rel
Hum
%
Delta-T
°C
Wind Press
QNH
hPa
Press
MSL
hPa
Rain since
9am
mm
Dir  Spd
km/h
Gust
km/h
Spd
kts
Gust
kts
24/07:00am -1.8 -4.6 -3.1 91 0.4 ENE 2 7 1 4 1013.7 1014.8 0.0
24/06:30am -1.4 -5.0 -3.3 87 0.6 E 6 7 3 4 1013.0 1014.0 0.0
24/06:00am -0.8 -4.9 -3.0 85 0.7 E 9 11 5 6 1012.5 1013.5 0.0
24/05:30am -0.6 -4.3 -3.0 84 0.8 E 7 11 4 6 1012.7 1013.7 0.0
24/05:00am -0.2 -3.3 -2.9 82 0.9 ENE 4 7 2 4 1012.6 1013.6 0.0
24/04:30am 0.4 -3.3 -2.5 81 1.0 ESE 7 13 4 7 1012.3 1013.3 0.0
24/04:00am 0.4 -2.4 -3.3 76 1.3 E 2 6 1 3 1012.2 1013.1 0.0
24/03:30am 1.5 -1.2 -2.8 73 1.6 N 2 7 1 4 1012.2 1013.1 0.0
24/03:00am 2.1 -1.5 -3.4 67 1.9 WSW 6 11 3 6 1011.8 1012.8 0.0
24/02:30am 3.3 -0.8 -2.8 64 2.2 N 9 13 5 7 1011.9 1012.9 0.0
24/02:00am 3.3 -0.4 -2.8 64 2.2 N 7 13 4 7 1012.3 1013.3 0.0
24/01:30am 3.4 -0.1 -3.0 63 2.3 E 6 7 3 4 1012.1 1013.0 0.0
24/01:00am 4.4 -0.1 -3.4 57 2.8 W 11 17 6 9 1012.2 1013.1 0.0
24/12:30am 4.6 -0.2 -2.9 58 2.7 WNW 13 19 7 10 1012.1 1013.0 0.0
24/12:00am 4.8 0.3 -3.0 57 2.9 NW 11 17 6 9 1012.3 1013.3 0.0
 
Date/Time
EST
Temp
°C
App
Temp
°C
Dew
Point
°C
Rel
Hum
%
Delta-T
°C
Wind Press
QNH
hPa
Press
MSL
hPa
Rain since
9am
mm
Dir  Spd
km/h
Gust
km/h
Spd
kts
Gust
kts
23/11:30pm 4.8 0.7 -3.0 57 2.9 NNW 9 13 5 7 1012.2 1013.1 0.0
23/11:00pm 4.5 0.9 -3.3 57 2.8 NNW 6 19 3 10 1011.8 1012.8 0.0
23/10:30pm 5.0 0.5 -3.3 55 3.0 WNW 11 17 6 9 1011.9 1012.9 0.0
23/10:00pm 4.5 0.0 -3.3 57 2.8 WNW 11 20 6 11 1011.5 1012.5 0.0
23/09:30pm 4.8 -0.5 -3.7 54 3.1 WNW 15 26 8 14 1011.2 1012.2 0.0
23/09:00pm 5.0 -1.2 -3.0 56 2.9 WNW 20 35 11 19 1011.0 1012.0 0.0
23/08:30pm 4.7 -1.2 -1.9 62 2.5 WNW 19 28 10 15 1010.7 1011.6 0.0
23/08:00pm 5.2 -0.7 -2.6 57 2.9 W 19 28 10 15 1010.6 1011.5 0.0
23/07:30pm 5.3 -0.7 -3.2 54 3.1 WNW 19 30 10 16 1010.1 1011.1 0.0
23/07:00pm 5.5 -1.2 -3.8 51 3.4 W 22 30 12 16 1009.8 1010.8 0.0
23/06:30pm 5.2 -0.9 -2.6 57 2.9 W 20 30 11 16 1009.5 1010.5 0.0
23/06:00pm 6.1 0.6 -2.0 56 3.1 W 17 26 9 14 1009.0 1009.9 0.0
23/05:30pm 6.1 0.1 -2.7 53 3.3 W 19 32 10 17 1008.5 1009.4 0.0
23/05:00pm 6.3 1.5 -2.6 53 3.4 W 13 20 7 11 1007.8 1008.7 0.0
23/04:30pm 6.6 1.8 -2.8 51 3.5 WNW 13 19 7 10 1007.0 1007.9 0.0
23/04:00pm 6.9 0.7 -3.3 48 3.8 W 20 28 11 15 1006.4 1007.3 0.0
23/03:30pm 7.7 1.2 -2.6 48 3.9 W 22 35 12 19 1006.0 1006.9 0.0
23/03:00pm 8.1 1.9 -0.1 56 3.4 W 22 43 12 23 1005.5 1006.4 0.0
23/02:30pm 8.8 2.4 -1.6 48 4.1 WNW 22 33 12 18 1004.5 1005.4 0.0
23/02:00pm 8.8 2.6 -0.2 53 3.7 WNW 22 46 12 25 1004.1 1005.0 0.0
23/01:56pm 8.9 1.9 -0.7 51 3.9 WNW 26 46 14 25 1004.0 1004.9 0.0
23/01:55pm 9.0 2.0 -0.3 52 3.8 WNW 26 46 14 25 1004.0 1004.9 0.0
23/01:30pm 9.8 5.5 1.2 55 3.7 NW 13 26 7 14 1003.6 1004.4 0.0
23/01:00pm 9.3 3.1 0.0 52 3.9 WNW 22 43 12 23 1003.5 1004.3 0.0
23/12:30pm 10.0 3.4 -0.5 48 4.3 WNW 24 39 13 21 1003.1 1003.9 0.0
23/12:00pm 9.8 4.3 0.7 53 3.9 WNW 19 32 10 17 1002.8 1003.7 0.0
23/11:30am 9.1 3.5 1.0 57 3.4 NW 20 35 11 19 1002.4 1003.3 0.0
23/11:00am 9.0 3.7 1.7 60 3.2 NW 19 32 10 17 1002.6 1003.5 0.0
23/10:30am 8.8 2.8 1.2 59 3.2 WNW 22 35 12 19 1002.1 1002.9 0.0
23/10:00am 7.9 1.9 1.3 63 2.8 WNW 22 43 12 23 1001.8 1002.6 0.0
23/09:30am 7.6 0.9 1.7 66 2.5 WNW 26 44 14 24 1001.3 1002.1 0.0
23/09:00am 6.7 0.5 2.4 74 1.9 WNW 24 35 13 19 1001.0 1001.9 11.4
23/08:49am 6.2 -0.7 2.3 76 1.7 WNW 28 46 15 25 1000.9 1001.8 11.4
23/08:30am 6.6 -0.1 1.7 71 2.1 NW 26 44 14 24 1000.6 1001.4 11.4
23/08:00am 5.5 -1.5 2.0 78 1.5 WNW 28 46 15 25 1000.4 1001.2 11.4
23/07:52am 5.6 -1.4 1.7 76 1.6 WNW 28 46 15 25 1000.4 1001.2 11.4
23/07:30am 6.0 0.0 1.2 71 2.0 WNW 22 44 12 24 1000.3 1001.1 11.4
23/07:00am 5.0 -1.3 1.3 77 1.5 WNW 24 35 13 19 1000.0 1000.8 11.4
23/06:30am 4.8 -1.4 2.2 83 1.1 WNW 24 43 13 23 999.7 1000.5 11.4
23/06:13am 5.6 -1.5 1.5 75 1.7 WNW 28 50 15 27 999.4 1000.2 11.0
23/06:00am 6.3 -0.5 0.6 67 2.3 WNW 26 39 14 21 998.9 999.7 11.0
23/05:41am 6.2 -0.9 1.1 70 2.1 WNW 28 46 15 25 998.6 999.4 11.0
23/05:30am 6.5 0.0 0.6 66 2.4 WNW 24 41 13 22 998.5 999.3 11.0
23/05:00am 7.5 -1.2 -0.2 58 3.1 WNW 35 85 19 46 997.9 998.6 11.0
23/04:54am 7.7 -0.5 -1.0 54 3.5 W 32 85 17 46 997.6 998.3 11.0
23/04:39am 7.2 0.1 1.1 65 2.5 WNW 28 59 15 32 997.4 998.2 11.0
23/04:30am 7.1 0.4 1.2 66 2.5 WNW 26 46 14 25 997.3 998.1 11.0
23/04:00am 7.9 -0.2 1.3 63 2.8 WNW 33 56 18 30 996.9 997.7 11.0
23/03:35am 7.8 0.9 2.5 69 2.3 WNW 28 57 15 31 996.7 997.5 10.8
23/03:30am 7.7 1.6 2.8 71 2.1 WNW 24 44 13 24 996.7 997.5 10.8
23/03:01am 8.7 1.4 2.5 65 2.7 WNW 30 57 16 31 996.8 997.6 10.6
23/03:00am 8.7 1.9 2.9 67 2.6 WNW 28 44 15 24 996.8 997.6 10.6
23/02:30am 8.7 1.7 3.9 72 2.2 WNW 30 52 16 28 997.0 997.8 10.6
23/02:12am 8.8 2.2 4.0 72 2.2 WNW 28 46 15 25 997.0 997.8 10.6
23/02:00am 8.5 2.3 4.5 76 1.8 NW 26 48 14 26 997.3 998.1 10.6
23/01:30am 8.5 2.0 4.7 77 1.7 WNW 28 46 15 25 997.7 998.4 10.6
23/01:00am 10.0 3.8 6.2 77 1.8 WNW 28 46 15 25 997.7 998.4 10.6
23/12:30am 11.8 4.9 4.5 61 3.4 WNW 30 50 16 27 996.7 997.5 10.4
23/12:00am 11.8 5.1 3.8 58 3.7 WNW 28 52 15 28 997.3 998.1 10.4
 
Date/Time
EST
Temp
°C
App
Temp
°C
Dew
Point
°C
Rel
Hum
%
Delta-T
°C
Wind Press
QNH
hPa
Press
MSL
hPa
Rain since
9am
mm
Dir  Spd
km/h
Gust
km/h
Spd
kts
Gust
kts
22/11:32pm 12.1 5.4 3.9 57 3.8 WNW 28 52 15 28 997.7 998.4 10.4
22/11:30pm 12.1 5.8 3.6 56 3.9 WNW 26 41 14 22 997.8 998.5 10.4
22/11:00pm 12.4 4.8 4.1 57 3.9 WNW 33 52 18 28 998.0 998.8 10.4
22/10:30pm 12.8 5.3 4.5 57 3.9 WNW 33 57 18 31 998.0 998.8 10.4
22/10:23pm 12.9 6.5 5.1 59 3.7 WNW 28 57 15 31 998.0 998.8 10.4
22/10:00pm 13.1 7.2 5.8 61 3.6 WNW 26 43 14 23 997.8 998.5 10.4
22/09:30pm 13.9 7.3 6.0 59 3.9 WNW 30 57 16 31 997.8 998.5 10.4
22/09:00pm 14.1 7.8 7.6 65 3.3 WNW 30 48 16 26 997.8 998.5 10.4
22/08:57pm 14.4 8.2 7.7 64 3.4 WNW 30 48 16 26 997.8 998.5 10.4
22/08:30pm 14.2 9.5 9.4 73 2.5 WNW 24 39 13 21 998.0 998.8 10.4
22/08:00pm 15.3 10.0 9.7 69 3.0 WNW 28 50 15 27 998.1 998.9 10.0
22/07:30pm 16.2 10.9 9.8 66 3.4 WNW 28 54 15 29 997.7 998.4 10.0
22/07:00pm 15.9 10.9 10.9 72 2.8 WNW 28 48 15 26 997.1 997.9 10.0
22/06:30pm 15.3 9.4 11.3 77 2.2 WNW 33 52 18 28 997.2 998.0 10.0
22/06:05pm 16.8 11.8 11.1 69 3.2 WNW 28 48 15 26 997.2 998.0 9.6
22/06:00pm 16.3 13.0 11.5 73 2.7 WNW 20 39 11 21 997.3 998.1 9.6
22/05:30pm 15.7 10.8 11.3 75 2.4 WNW 28 41 15 22 997.0 997.8 9.4
22/05:14pm 16.4 11.6 11.6 73 2.7 WNW 28 48 15 26 997.6 998.3 9.2
22/05:00pm 15.7 11.5 12.5 81 1.8 WNW 26 57 14 31 997.2 998.0 9.2
22/04:30pm 15.3 12.3 13.7 90 0.9 NW 22 46 12 25 997.3 998.1 7.2
22/04:24pm 15.1 10.9 13.5 90 0.9 NW 28 46 15 25 997.3 998.1 7.2
22/04:00pm 16.6 13.0 12.9 79 2.1 NW 24 48 13 26 996.9 997.7 5.6
22/03:30pm 15.5 13.0 14.0 91 0.9 NNW 20 33 11 18 997.3 998.1 4.2
22/03:00pm 15.8 13.3 13.6 87 1.3 NNW 19 28 10 15 997.7 998.4 4.0
22/02:30pm 15.9 13.2 13.4 85 1.4 NW 20 39 11 21 998.3 999.1 3.8
22/02:00pm 15.5 12.0 13.5 88 1.2 NW 24 35 13 19 999.4 1000.2 3.4
22/01:30pm 15.6 12.1 13.3 86 1.3 NW 24 35 13 19 1000.1 1000.9 2.8
22/01:00pm 15.7 12.6 13.4 86 1.3 NW 22 35 12 19 1000.7 1001.5 2.0
22/12:30pm 15.6 14.5 14.3 92 0.8 NNW 13 24 7 13 1001.8 1002.6 1.0
22/12:00pm 15.7 13.8 14.2 91 0.9 NNW 17 30 9 16 1002.5 1003.4 0.6
22/11:30am 15.3 13.2 14.7 96 0.4 NNW 19 32 10 17 1003.7 1004.6 0.4
22/11:00am 15.5 12.2 14.0 91 0.9 N 24 35 13 19 1004.4 1005.3 0.2
22/10:30am 15.5 13.2 14.0 91 0.9 NNW 19 33 10 18 1005.6 1006.5 0.2
22/10:00am 14.3 12.0 14.1 99 0.1 N 19 33 10 18 1006.2 1007.1 0.2
22/09:30am 14.1 12.0 13.5 96 0.3 N 17 26 9 14 1006.6 1007.5 0.0
22/09:00am 14.2 11.4 13.1 93 0.6 NNW 20 30 11 16 1007.1 1008.0 0.2
22/08:30am 14.0 12.1 13.1 94 0.5 NW 15 26 8 14 1007.4 1008.3 0.2
22/08:00am 12.3 11.2 12.1 99 0.1 N 9 15 5 8 1008.0 1009.0 0.0
22/07:30am 12.1 11.0 11.9 99 0.1 NNW 9 15 5 8 1007.9 1008.8 0.0
22/07:00am 11.8 9.9 11.8 100 0.0 NNW 13 20 7 11 1008.4 1009.3 0.0
22/06:30am 11.5 8.7 11.5 100 0.0 N 17 26 9 14 1008.7 1009.6 0.0
22/06:00am 11.3 8.5 11.3 100 0.0 N 17 22 9 12 1009.1 1010.0 0.0
22/05:30am 11.5 9.1 11.5 100 0.0 N 15 24 8 13 1009.7 1010.7 0.0
22/05:00am 11.2 9.1 11.2 100 0.0 N 13 19 7 10 1009.8 1010.8 0.0
22/04:30am 10.5 9.4 10.5 100 0.0 NNW 7 13 4 7 1010.8 1011.7 0.0
22/04:00am 10.3 10.4 10.3 100 0.0 CALM 0 0 0 0 1011.4 1012.4 0.0
22/03:30am 10.2 10.3 10.2 100 0.0 CALM 0 0 0 0 1012.2 1013.1 0.0
22/03:00am 9.7 9.7 9.7 100 0.0 CALM 0 0 0 0 1012.6 1013.6 0.0
22/02:30am 9.6 9.2 9.6 100 0.0 E 2 7 1 4 1012.6 1013.6 0.0
22/02:00am 9.6 9.5 9.6 100 0.0 CALM 0 0 0 0 1013.6 1014.6 0.0
22/01:30am 10.0 10.1 10.0 100 0.0 CALM 0 2 0 1 1014.1 1015.1 0.0
22/01:00am 8.9 7.9 8.9 100 0.0 NW 4 7 2 4 1014.5 1015.5 0.0
22/12:30am 7.9 7.4 7.8 99 0.0 CALM 0 0 0 0 1014.3 1015.3 0.0
22/12:00am 7.9 7.4 7.8 99 0.0 CALM 0 6 0 3 1014.7 1015.7 0.0
 
Date/Time
EST
Temp
°C
App
Temp
°C
Dew
Point
°C
Rel
Hum
%
Delta-T
°C
Wind Press
QNH
hPa
Press
MSL
hPa
Rain since
9am
mm
Dir  Spd
km/h
Gust
km/h
Spd
kts
Gust
kts
21/11:30pm 8.4 7.6 8.3 99 0.0 ESE 2 7 1 4 1014.9 1015.9 0.0
21/11:00pm 8.5 8.1 8.4 99 0.0 CALM 0 0 0 0 1015.3 1016.4 0.0
21/10:30pm 8.8 7.4 8.7 99 0.1 SSE 6 9 3 5 1015.4 1016.5 0.0
21/10:00pm 9.4 9.0 8.3 93 0.5 CALM 0 0 0 0 1015.4 1016.5 0.0
21/09:30pm 10.5 10.2 8.8 89 0.9 CALM 0 0 0 0 1015.7 1016.7 0.0
21/09:00pm 11.6 10.2 9.7 88 1.0 ENE 7 11 4 6 1015.9 1016.9 0.0
21/08:30pm 13.0 11.6 9.4 79 1.9 NNW 7 11 4 6 1015.9 1016.9 0.0
21/08:00pm 13.0 11.2 9.6 80 1.8 N 9 15 5 8 1016.1 1017.1 0.0
21/07:30pm 12.9 11.3 10.3 84 1.4 N 9 15 5 8 1016.0 1017.0 0.0
21/07:00pm 13.3 11.7 10.1 81 1.7 N 9 13 5 7 1016.0 1017.0 0.0
21/06:30pm 13.3 12.0 10.1 81 1.7 NNW 7 11 4 6 1015.8 1016.8 0.0
21/06:00pm 13.4 12.1 10.0 80 1.8 NNE 7 11 4 6 1015.4 1016.5 0.0
21/05:30pm 13.4 13.4 9.8 79 1.9 CALM 0 0 0 0 1015.7 1016.7 0.0
21/05:00pm 13.8 13.3 9.5 75 2.3 N 2 7 1 4 1015.5 1016.6 0.0
21/04:30pm 13.9 12.2 9.9 77 2.1 N 9 15 5 8 1015.5 1016.6 0.0
21/04:00pm 14.3 12.6 9.9 75 2.3 NE 9 15 5 8 1015.5 1016.6 0.0
21/03:30pm 13.2 11.8 9.6 79 1.9 NW 7 9 4 5 1016.2 1017.2 0.0
21/03:00pm 13.1 11.7 9.4 78 1.9 NNE 7 9 4 5 1016.2 1017.2 0.0
21/02:30pm 13.1 11.7 9.7 80 1.8 N 7 11 4 6 1016.3 1017.3 0.0
21/02:00pm 13.1 11.7 9.5 79 1.9 NE 7 9 4 5 1016.4 1017.4 0.0
21/01:30pm 12.4 10.9 9.2 81 1.7 NNE 7 9 4 5 1016.9 1018.0 0.0
21/01:00pm 12.6 11.1 9.1 79 1.8 WNW 7 11 4 6 1017.7 1018.7 0.0
21/12:30pm 12.3 10.9 9.0 80 1.7 N 6 9 3 5 1018.0 1019.0 0.0
21/12:00pm 12.0 11.8 9.0 82 1.5 CALM 0 0 0 0 1018.6 1019.7 0.0
21/11:30am 11.5 10.8 8.5 82 1.5 N 2 7 1 4 1019.1 1020.2 0.0
21/11:00am 11.4 10.0 8.8 84 1.3 NNW 6 9 3 5 1019.7 1020.8 0.0
21/10:30am 11.2 10.6 9.1 87 1.1 WSW 2 7 1 4 1020.1 1021.2 0.0
21/10:00am 10.9 9.7 9.7 92 0.6 W 6 9 3 5 1020.4 1021.5 0.0
21/09:30am 10.7 9.3 9.5 92 0.6 WSW 7 9 4 5 1020.7 1021.8 0.0
21/09:00am 10.6 10.1 9.5 93 0.6 WSW 2 7 1 4 1020.7 1021.8 0.0
21/08:30am 10.3 10.4 10.0 98 0.2 CALM 0 0 0 0 1020.7 1021.8 0.0
21/08:00am 9.7 9.6 9.6 99 0.1 CALM 0 0 0 0 1020.7 1021.8 0.0
21/07:30am 9.4 9.3 9.4 100 0.0 CALM 0 0 0 0 1020.8 1021.9 0.0

Other Formats:

Comma delimited format used in spreadsheet applications
http://www.bom.gov.au/fwo/IDN60801/IDN60801.94925.axf

JavaScript Object Notation format (JSON) in row-major order
http://www.bom.gov.au/fwo/IDN60801/IDN60801.94925.json